KJAN

Jackson-Medgar Wiley Evers International Airport

Jackson, Mississippi, USA
METAR KJAN 201601Z 23013KT 10SM FEW036 BKN044 31/23 A3004 RMK AO2 T03060233
Observed Flight Rules
Aug-20 @ 16:01 UTC (22 minutes ago) Visual Flight Rules
Wind Visibility Clouds
230° at 13 knots 10 miles
  • Few at 3,600' AGL
  • Broken at 4,400' AGL
Temperatures Readings
Current 31°C / 88°F
Dewpoint 23°C / 73°F
Humidity 62%
Altimeter 30.04" Hg
Pressure 1017 hPa
Elevation 91
METAR KJAN 201601Z 23013KT 10SM FEW036 BKN044 31/23 A3004 RMK AO2 T03060233
Observed Flight Rules
Aug-20 @ 16:01 UTC
(22 minutes ago)
VFR
Wind Visibility
230° at 13 knots 10 miles
Clouds
  • Few at 3,600' AGL
  • Broken at 4,400' AGL
Temperature Dewpoint
31°C / 88°F 23°C / 73°F
Humidity Altimeter Pressure
62% 30.04" Hg 1017 hPa